Thursday, June 29, 2017, 10:02 AM EDT

KSEG, Selinsgrove Penn Valley Airport

Location: Selinsgrove, PA, United States Lat: 40.817
Local Time: 10:02 AM EDT (14:02 GMT) Lon: -76.867
Time Zone: US/Eastern Elev: 449 ft

Show me the last for .
Show Decoded

2017-06-29 08:53 METAR KSEG 291253Z AUTO 20005KT 10SM CLR 22/14 A3012 RMK AO2 SLP197 T02170144 $
                 =
2017-06-29 07:53 METAR KSEG 291153Z AUTO 21004KT 10SM CLR 20/14 A3011 RMK AO2 SLP194 T02000139
                 10200 20167 50000 $ =
2017-06-29 06:53 METAR KSEG 291053Z AUTO 00000KT 10SM CLR 18/13 A3013 RMK AO2 SLP201 T01830133 $
                 =
2017-06-29 05:53 METAR KSEG 290953Z AUTO 00000KT 10SM CLR 17/14 A3012 RMK AO2 SLP198 T01670139 $
                 =
2017-06-29 04:53 METAR KSEG 290853Z AUTO 00000KT 10SM CLR 17/13 A3011 RMK AO2 SLP194 T01670133
                 56003 $ =
2017-06-29 03:53 METAR KSEG 290753Z AUTO 29003KT 10SM CLR 17/13 A3011 RMK AO2 SLP194 T01720128 $
                 =
2017-06-29 02:53 METAR KSEG 290653Z AUTO 00000KT 10SM CLR 17/12 A3011 RMK AO2 SLP193 T01720122 $
                 =
2017-06-29 01:53 METAR KSEG 290553Z AUTO 16003KT 10SM CLR 17/13 A3012 RMK AO2 SLP197 T01720133
                 10228 20167 53002 $ =
2017-06-29 00:53 METAR KSEG 290453Z AUTO 00000KT 10SM CLR 17/13 A3012 RMK AO2 SLP197 T01720128
                 402670089 $ =
2017-06-28 23:53 METAR KSEG 290353Z AUTO 18004KT 10SM CLR 18/12 A3011 RMK AO2 SLP194 T01830122 =
2017-06-28 22:53 METAR KSEG 290253Z AUTO 19003KT 10SM CLR 19/12 A3012 RMK AO2 SLP195 T01940122
                 53005 =
2017-06-28 21:53 METAR KSEG 290153Z AUTO 00000KT 10SM CLR 20/13 A3011 RMK AO2 SLP192 T02000128 =
2017-06-28 20:53 METAR KSEG 290053Z AUTO 21003KT 10SM CLR 21/14 A3009 RMK AO2 SLP188 T02060139 =
2017-06-28 19:53 METAR KSEG 282353Z AUTO 00000KT 10SM CLR 23/12 A3010 RMK AO2 SLP191 T02330117
                 10267 20233 56001 =
2017-06-28 18:53 METAR KSEG 282253Z AUTO 22006KT 10SM FEW070 24/11 A3010 RMK AO2 SLP192 T02440106
                 =
2017-06-28 17:53 METAR KSEG 282153Z AUTO VRB03KT 10SM CLR 26/10 A3010 RMK AO2 SLP190 T02610100 =
2017-06-28 16:53 METAR KSEG 282053Z AUTO VRB03KT 10SM FEW075 26/11 A3010 RMK AO2 SLP192 T02610106
                 58013 =
2017-06-28 15:53 METAR KSEG 281953Z AUTO 29005KT 10SM BKN075 26/09 A3013 RMK AO2 SLP201 T02610094
                 =
2017-06-28 14:53 METAR KSEG 281853Z AUTO 00000KT 10SM BKN070 26/10 A3013 RMK AO2 SLP201 T02560100
                 =
2017-06-28 13:53 METAR KSEG 281753Z AUTO 29003KT 10SM BKN065 24/11 A3014 RMK AO2 SLP206 T02440106
                 10250 20139 58008 =
2017-06-28 12:53 METAR KSEG 281653Z AUTO VRB04KT 10SM FEW060 24/10 A3016 RMK AO2 SLP211 T02440100
                 =
2017-06-28 11:53 METAR KSEG 281553Z AUTO VRB06KT 10SM FEW055 23/12 A3018 RMK AO2 SLP219 T02330117
                 =
2017-06-28 10:53 METAR KSEG 281453Z AUTO 00000KT 10SM CLR 21/10 A3017 RMK AO2 SLP214 T02110100
                 58002 =

Support USWX by starting your Amazon purchase here.